createdAt,value
2023-03-03T00:00:01.012Z,19.59
2023-03-03T00:01:03.826Z,17.95
2023-03-03T00:02:05.893Z,18.29
2023-03-03T00:03:11.510Z,17.43
2023-03-03T00:04:13.718Z,19.37
2023-03-03T00:05:15.710Z,17.54
2023-03-03T00:06:18.693Z,18.90
2023-03-03T00:07:20.796Z,19.86
2023-03-03T00:08:22.707Z,23.71
2023-03-03T00:09:24.976Z,22.71
2023-03-03T00:10:27.678Z,25.24
2023-03-03T00:11:29.617Z,26.08
2023-03-03T00:12:34.983Z,27.61
2023-03-03T00:13:46.732Z,29.02
2023-03-03T00:14:49.148Z,27.14
2023-03-03T00:15:52.725Z,23.05
2023-03-03T00:16:56.781Z,19.86
2023-03-03T00:17:59.210Z,18.06
2023-03-03T00:19:01.384Z,17.21
2023-03-03T00:20:07.364Z,16.51
2023-03-03T00:21:24.644Z,17.54
2023-03-03T00:22:33.335Z,17.77
2023-03-03T00:23:38.214Z,16.06
2023-03-03T00:24:40.513Z,15.14
2023-03-03T00:25:44.847Z,15.61
2023-03-03T00:26:52.917Z,14.46
2023-03-03T00:27:56.919Z,15.29
2023-03-03T00:28:59.706Z,15.53
2023-03-03T00:30:03.402Z,14.72
2023-03-03T00:31:09.581Z,15.31
2023-03-03T00:32:22.611Z,15.32
2023-03-03T00:33:28.405Z,15.29
2023-03-03T00:34:33.722Z,13.51
2023-03-03T00:35:36.239Z,13.11
2023-03-03T00:36:40.744Z,14.39
2023-03-03T00:37:43.268Z,14.24
2023-03-03T00:38:46.673Z,15.07
2023-03-03T00:39:49.082Z,15.32
2023-03-03T00:40:51.286Z,16.65
2023-03-03T00:41:54.056Z,17.98
2023-03-03T00:42:59.087Z,16.86
2023-03-03T00:44:04.883Z,17.90
2023-03-03T00:45:28.284Z,15.83
2023-03-03T00:46:30.524Z,15.09
2023-03-03T00:47:42.440Z,13.85
2023-03-03T00:48:45.277Z,14.71
2023-03-03T00:49:47.180Z,21.39
2023-03-03T00:50:50.617Z,24.10
2023-03-03T00:51:54.435Z,25.72
2023-03-03T00:53:12.458Z,20.24
2023-03-03T00:54:14.655Z,14.05
2023-03-03T00:55:16.669Z,16.61
2023-03-03T00:56:19.599Z,19.49
2023-03-03T00:57:21.616Z,17.75
2023-03-03T00:58:25.193Z,16.43
2023-03-03T00:59:27.411Z,18.79
2023-03-03T01:00:29.865Z,20.76
2023-03-03T01:01:31.817Z,20.55
2023-03-03T01:02:33.864Z,23.33
2023-03-03T01:03:36.226Z,25.53
2023-03-03T01:04:41.744Z,22.53
2023-03-03T01:05:44.463Z,19.12
2023-03-03T01:06:47.348Z,21.66
2023-03-03T01:07:49.826Z,17.03
2023-03-03T01:08:51.751Z,18.83
2023-03-03T01:09:53.712Z,20.41
2023-03-03T01:10:58.998Z,19.10
2023-03-03T01:12:01.981Z,19.21
2023-03-03T01:13:06.042Z,20.57
2023-03-03T01:14:08.919Z,20.14
2023-03-03T01:15:13.642Z,21.97
2023-03-03T01:16:17.128Z,20.73
2023-03-03T01:17:19.702Z,15.72
2023-03-03T01:18:22.266Z,16.76
2023-03-03T01:19:25.241Z,14.51
2023-03-03T01:20:27.901Z,15.58
2023-03-03T01:21:29.806Z,15.51
2023-03-03T01:22:31.692Z,13.85
2023-03-03T01:23:34.883Z,17.26
2023-03-03T01:24:36.774Z,18.73
2023-03-03T01:25:39.263Z,16.65
2023-03-03T01:26:41.420Z,14.39
2023-03-03T01:27:43.296Z,14.55
2023-03-03T01:28:45.159Z,15.23
2023-03-03T01:29:47.040Z,15.57
2023-03-03T01:30:49.465Z,14.19
2023-03-03T01:31:51.611Z,13.52
2023-03-03T01:32:54.631Z,11.87
2023-03-03T01:33:56.790Z,10.92
2023-03-03T01:34:58.831Z,14.09
2023-03-03T01:36:03.000Z,14.51
2023-03-03T01:37:04.942Z,16.78
2023-03-03T01:38:07.065Z,16.03
2023-03-03T01:39:11.019Z,18.57
2023-03-03T01:40:17.062Z,18.87
2023-03-03T01:41:19.776Z,16.10
2023-03-03T01:42:22.357Z,16.57
2023-03-03T01:43:29.467Z,16.21
2023-03-03T01:44:31.584Z,13.95
2023-03-03T01:45:49.656Z,14.39
2023-03-03T01:46:58.823Z,14.77
2023-03-03T01:49:32.878Z,11.21
2023-03-03T01:50:57.270Z,11.49
2023-03-03T01:52:02.979Z,11.86
2023-03-03T01:53:08.753Z,11.39
2023-03-03T01:54:14.501Z,14.69
2023-03-03T01:55:26.328Z,13.98
2023-03-03T01:56:28.949Z,12.58
2023-03-03T01:57:35.939Z,11.52
2023-03-03T01:58:41.660Z,12.11
2023-03-03T01:59:48.340Z,11.25
2023-03-03T02:00:57.188Z,12.28
2023-03-03T02:01:59.349Z,12.34
2023-03-03T02:03:01.972Z,10.97
2023-03-03T02:04:05.358Z,11.57
2023-03-03T02:05:09.490Z,11.23
2023-03-03T02:06:17.947Z,11.85
2023-03-03T02:07:22.491Z,11.88
2023-03-03T02:08:28.397Z,11.32
2023-03-03T02:09:50.980Z,11.10
2023-03-03T02:10:55.238Z,11.53
2023-03-03T02:12:00.749Z,11.73
2023-03-03T02:13:02.987Z,10.62
2023-03-03T02:14:04.972Z,10.44
2023-03-03T02:15:19.404Z,10.51
2023-03-03T02:16:21.780Z,10.29
2023-03-03T02:17:24.591Z,10.71
2023-03-03T02:18:27.863Z,10.77
2023-03-03T02:19:38.969Z,10.25
2023-03-03T02:20:47.754Z,11.25
2023-03-03T02:21:49.972Z,11.43
2023-03-03T02:23:08.233Z,10.83
2023-03-03T02:24:16.969Z,10.64
2023-03-03T02:27:39.238Z,11.09
2023-03-03T02:28:42.046Z,10.69
2023-03-03T02:29:44.071Z,10.58
2023-03-03T02:30:46.460Z,10.53
2023-03-03T02:31:48.619Z,10.40
2023-03-03T02:32:51.024Z,10.57
2023-03-03T02:33:54.623Z,10.87
2023-03-03T02:34:56.512Z,10.73
2023-03-03T02:35:59.159Z,10.89
2023-03-03T02:37:03.110Z,10.47
2023-03-03T02:38:20.635Z,10.44
2023-03-03T02:39:26.384Z,10.30
2023-03-03T02:40:32.453Z,9.91
2023-03-03T02:41:44.317Z,10.36
2023-03-03T02:42:48.524Z,10.83
2023-03-03T02:43:54.198Z,10.84
2023-03-03T02:44:56.321Z,11.52
2023-03-03T02:45:58.257Z,10.40
2023-03-03T02:47:00.696Z,10.89
2023-03-03T02:48:02.879Z,11.51
2023-03-03T02:49:07.018Z,10.20
2023-03-03T02:50:10.778Z,11.99
2023-03-03T02:51:13.003Z,12.12
2023-03-03T02:52:15.044Z,12.47
2023-03-03T02:53:17.318Z,12.43
2023-03-03T02:54:21.268Z,13.32
2023-03-03T02:55:23.314Z,12.39
2023-03-03T02:56:26.255Z,11.15
2023-03-03T02:57:28.722Z,10.26
2023-03-03T02:58:31.353Z,10.69
2023-03-03T02:59:33.519Z,10.66
2023-03-03T03:00:35.563Z,10.17
2023-03-03T03:01:39.090Z,10.77
2023-03-03T03:02:40.993Z,10.46
2023-03-03T03:03:43.970Z,10.51
2023-03-03T03:04:46.486Z,10.49
2023-03-03T03:05:48.527Z,10.70
2023-03-03T03:06:52.768Z,10.54
2023-03-03T03:07:54.768Z,11.70
2023-03-03T03:08:56.647Z,10.15
2023-03-03T03:09:58.569Z,10.57
2023-03-03T03:11:00.566Z,10.49
2023-03-03T03:12:02.713Z,10.01
2023-03-03T03:13:04.711Z,11.43
2023-03-03T03:14:09.125Z,10.51
2023-03-03T03:15:11.427Z,11.31
2023-03-03T03:16:13.976Z,10.91
2023-03-03T03:17:16.062Z,11.41
2023-03-03T03:18:18.488Z,12.37
2023-03-03T03:19:20.849Z,11.73
2023-03-03T03:20:23.305Z,11.28
2023-03-03T03:21:25.748Z,13.22
2023-03-03T03:22:27.632Z,14.25
2023-03-03T03:23:29.627Z,12.03
2023-03-03T03:24:31.974Z,12.80
2023-03-03T03:25:34.079Z,13.73
2023-03-03T03:26:36.662Z,14.25
2023-03-03T03:27:38.726Z,11.96
2023-03-03T03:28:40.634Z,12.03
2023-03-03T03:29:42.693Z,12.34
2023-03-03T03:30:46.653Z,12.97
2023-03-03T03:31:48.721Z,13.42
2023-03-03T03:32:50.899Z,12.19
2023-03-03T03:33:52.792Z,11.35
2023-03-03T03:34:54.785Z,14.19
2023-03-03T03:35:58.628Z,14.73
2023-03-03T03:37:00.849Z,13.91
2023-03-03T03:38:03.122Z,13.13
2023-03-03T03:39:05.294Z,12.72
2023-03-03T03:40:09.052Z,13.93
2023-03-03T03:41:12.249Z,13.86
2023-03-03T03:42:14.374Z,11.52
2023-03-03T03:43:16.454Z,10.89
2023-03-03T03:44:18.764Z,11.77
2023-03-03T03:45:21.222Z,12.62
2023-03-03T03:46:23.572Z,12.87
2023-03-03T03:47:25.618Z,13.63
2023-03-03T03:48:28.205Z,13.65
2023-03-03T03:49:31.206Z,12.49
2023-03-03T03:50:33.281Z,12.82
2023-03-03T03:51:35.300Z,11.67
2023-03-03T03:52:37.747Z,12.69
2023-03-03T03:53:39.721Z,15.39
2023-03-03T03:54:42.695Z,13.89
2023-03-03T03:55:45.803Z,16.46
2023-03-03T03:56:47.808Z,13.48
2023-03-03T03:57:50.387Z,13.53
2023-03-03T03:58:52.372Z,13.50
2023-03-03T03:59:54.533Z,14.81
2023-03-03T04:01:02.693Z,14.71
2023-03-03T04:02:04.855Z,13.46
2023-03-03T04:03:08.217Z,13.29
2023-03-03T04:04:10.613Z,12.07
2023-03-03T04:05:12.919Z,10.97
2023-03-03T04:06:15.115Z,9.95
2023-03-03T04:07:18.722Z,10.93
2023-03-03T04:08:20.649Z,11.66
2023-03-03T04:09:22.651Z,12.56
2023-03-03T04:10:24.651Z,12.03
2023-03-03T04:11:27.057Z,10.21
2023-03-03T04:12:30.243Z,10.10
2023-03-03T04:13:32.446Z,12.23
2023-03-03T04:14:34.717Z,18.57
2023-03-03T04:15:36.712Z,15.76
2023-03-03T04:16:39.060Z,14.06
2023-03-03T04:17:41.654Z,12.71
2023-03-03T04:18:46.555Z,11.28
2023-03-03T04:19:48.862Z,12.41
2023-03-03T04:20:51.372Z,11.93
2023-03-03T04:21:53.293Z,13.79
2023-03-03T04:22:55.392Z,12.09
2023-03-03T04:23:57.299Z,10.82
2023-03-03T04:25:00.544Z,13.37
2023-03-03T04:26:03.642Z,10.87
2023-03-03T04:27:06.445Z,11.41
2023-03-03T04:28:09.343Z,10.87
2023-03-03T04:29:11.497Z,11.26
2023-03-03T04:30:16.430Z,10.19
2023-03-03T04:31:20.265Z,11.11
2023-03-03T04:32:22.234Z,14.29
2023-03-03T04:33:24.616Z,14.05
2023-03-03T04:34:26.958Z,12.70
2023-03-03T04:35:29.041Z,13.64
2023-03-03T04:36:31.602Z,13.13
2023-03-03T04:37:34.074Z,12.76
2023-03-03T04:38:36.088Z,13.85
2023-03-03T04:39:38.001Z,13.47
2023-03-03T04:40:41.702Z,12.98
2023-03-03T04:41:43.920Z,12.27
2023-03-03T04:42:46.364Z,14.11
2023-03-03T04:43:48.361Z,13.73
2023-03-03T04:44:50.249Z,12.50
2023-03-03T04:45:52.497Z,11.19
2023-03-03T04:46:54.547Z,12.45
2023-03-03T04:47:56.426Z,11.72
2023-03-03T04:48:58.523Z,10.41
2023-03-03T04:50:00.802Z,11.07
2023-03-03T04:51:03.907Z,10.71
2023-03-03T04:52:06.047Z,10.11
2023-03-03T04:53:08.158Z,9.81
2023-03-03T04:54:10.240Z,9.97
2023-03-03T04:55:12.229Z,9.66
2023-03-03T04:56:16.866Z,9.69
2023-03-03T04:57:19.077Z,8.98
2023-03-03T04:58:21.665Z,8.61
2023-03-03T04:59:24.334Z,9.63
2023-03-03T05:00:27.186Z,9.99
2023-03-03T05:01:29.149Z,9.15
2023-03-03T05:02:31.086Z,9.91
2023-03-03T05:03:32.991Z,9.76
2023-03-03T05:04:35.892Z,9.01
2023-03-03T05:05:38.348Z,18.64
2023-03-03T05:06:40.376Z,17.99
2023-03-03T05:07:42.510Z,19.46
2023-03-03T05:08:45.724Z,19.89
2023-03-03T05:09:47.635Z,19.11
2023-03-03T05:10:55.517Z,15.86
2023-03-03T05:11:57.448Z,12.84
2023-03-03T05:12:59.438Z,14.10
2023-03-03T05:14:01.644Z,18.96
2023-03-03T05:15:05.570Z,18.95
2023-03-03T05:16:08.591Z,13.61
2023-03-03T05:17:11.469Z,13.85
2023-03-03T05:18:13.371Z,11.09
2023-03-03T05:19:15.261Z,10.81
2023-03-03T05:20:17.636Z,11.24
2023-03-03T05:21:20.458Z,11.05
2023-03-03T05:22:23.170Z,11.98
2023-03-03T05:23:25.064Z,12.04
2023-03-03T05:24:27.282Z,10.91
2023-03-03T05:25:29.178Z,9.57
2023-03-03T05:26:31.201Z,8.76
2023-03-03T05:27:33.119Z,9.57
2023-03-03T05:28:35.048Z,8.52
2023-03-03T05:29:37.189Z,9.47
2023-03-03T05:30:39.656Z,8.09
2023-03-03T05:31:44.009Z,8.71
2023-03-03T05:32:46.445Z,9.15
2023-03-03T05:33:49.140Z,8.68
2023-03-03T05:34:51.980Z,8.21
2023-03-03T05:35:56.814Z,9.34
2023-03-03T05:36:59.100Z,8.51
2023-03-03T05:38:03.105Z,7.74
2023-03-03T05:39:05.392Z,7.58
2023-03-03T05:40:09.525Z,7.98
2023-03-03T05:41:11.449Z,7.83
2023-03-03T05:42:14.187Z,8.19
2023-03-03T05:43:16.922Z,8.43
2023-03-03T05:44:20.682Z,9.10
2023-03-03T05:45:22.885Z,8.64
2023-03-03T05:46:25.099Z,10.46
2023-03-03T05:47:27.057Z,9.89
2023-03-03T05:48:29.643Z,10.61
2023-03-03T05:49:32.110Z,8.65
2023-03-03T05:50:35.300Z,9.18
2023-03-03T05:51:37.195Z,9.26
2023-03-03T05:52:39.279Z,8.07
2023-03-03T05:53:41.852Z,8.55
2023-03-03T05:54:44.435Z,8.84
2023-03-03T05:55:46.356Z,8.54
2023-03-03T05:56:49.239Z,9.01
2023-03-03T05:57:51.240Z,8.70
2023-03-03T05:58:53.223Z,9.14
2023-03-03T05:59:55.261Z,10.29
2023-03-03T06:00:57.464Z,10.15
2023-03-03T06:01:59.367Z,11.70
2023-03-03T06:03:02.967Z,10.51
2023-03-03T06:04:06.233Z,10.91
2023-03-03T06:05:09.091Z,10.58
2023-03-03T06:06:11.450Z,10.49
2023-03-03T06:07:13.533Z,10.15
2023-03-03T06:08:15.448Z,11.04
2023-03-03T06:09:17.433Z,10.55
2023-03-03T06:10:19.948Z,10.05
2023-03-03T06:11:21.965Z,10.47
2023-03-03T06:12:24.081Z,10.00
2023-03-03T06:13:26.521Z,10.26
2023-03-03T06:14:29.910Z,12.35
2023-03-03T06:15:31.842Z,12.09
2023-03-03T06:16:34.700Z,12.23
2023-03-03T06:17:38.404Z,12.53
2023-03-03T06:18:40.301Z,14.67
2023-03-03T06:19:42.260Z,15.00
2023-03-03T06:20:44.229Z,20.36
2023-03-03T06:21:46.579Z,19.14
2023-03-03T06:22:49.078Z,20.47
2023-03-03T06:23:51.053Z,19.19
2023-03-03T06:24:53.034Z,17.05
2023-03-03T06:25:54.939Z,17.49
2023-03-03T06:26:58.478Z,16.09
2023-03-03T06:28:01.337Z,15.85
2023-03-03T06:29:03.361Z,16.13
2023-03-03T06:30:07.833Z,13.15
2023-03-03T06:31:09.738Z,12.76
2023-03-03T06:32:11.889Z,12.29
2023-03-03T06:33:13.998Z,11.77
2023-03-03T06:34:16.172Z,11.85
2023-03-03T06:35:18.230Z,11.47
2023-03-03T06:36:21.180Z,10.44
2023-03-03T06:37:23.074Z,11.35
2023-03-03T06:38:26.124Z,11.59
2023-03-03T06:39:28.753Z,10.89
2023-03-03T06:40:31.016Z,10.93
2023-03-03T06:41:33.276Z,11.45
2023-03-03T06:42:35.289Z,11.32
2023-03-03T06:43:37.850Z,10.93
2023-03-03T06:44:39.744Z,11.72
2023-03-03T06:45:42.049Z,11.43
2023-03-03T06:46:46.693Z,12.87
2023-03-03T06:47:48.627Z,13.61
2023-03-03T06:48:50.510Z,17.65
2023-03-03T06:49:52.383Z,17.74
2023-03-03T06:50:54.690Z,15.21
2023-03-03T06:51:59.548Z,14.81
2023-03-03T06:53:11.455Z,13.24
2023-03-03T06:54:19.264Z,11.19
2023-03-03T06:55:23.020Z,11.71
2023-03-03T06:56:32.512Z,11.49
2023-03-03T06:57:42.083Z,11.67
2023-03-03T06:58:51.703Z,10.50
2023-03-03T07:00:16.037Z,10.86
2023-03-03T07:01:18.096Z,11.13
2023-03-03T07:02:21.536Z,10.63
2023-03-03T07:03:27.253Z,10.87
2023-03-03T07:04:32.906Z,11.54
2023-03-03T07:05:34.936Z,10.36
2023-03-03T07:06:37.250Z,11.65
2023-03-03T07:07:39.239Z,10.22
2023-03-03T07:08:42.178Z,10.97
2023-03-03T07:09:47.159Z,12.36
2023-03-03T07:10:51.584Z,12.20
2023-03-03T07:11:57.609Z,11.98
2023-03-03T07:13:21.479Z,11.07
2023-03-03T07:14:23.417Z,12.13
2023-03-03T07:15:31.912Z,11.23
2023-03-03T07:16:34.478Z,11.49
2023-03-03T07:17:48.448Z,11.51
2023-03-03T07:19:01.539Z,10.59
2023-03-03T07:20:10.296Z,12.39
2023-03-03T07:21:25.097Z,13.57
2023-03-03T07:22:28.555Z,13.91
2023-03-03T07:24:54.095Z,10.39
2023-03-03T07:25:56.075Z,9.33
2023-03-03T07:27:14.302Z,8.79
2023-03-03T07:28:25.290Z,9.92
2023-03-03T07:29:29.436Z,9.22
2023-03-03T07:30:32.860Z,11.35
2023-03-03T07:31:40.360Z,10.75
2023-03-03T07:32:45.233Z,10.73
2023-03-03T07:33:47.738Z,9.36
2023-03-03T07:34:52.456Z,9.26
2023-03-03T07:36:01.749Z,8.89
2023-03-03T07:37:19.418Z,8.82
2023-03-03T07:38:25.177Z,9.89
2023-03-03T07:39:38.334Z,11.10
2023-03-03T07:40:43.600Z,11.71
2023-03-03T07:41:45.692Z,10.24
2023-03-03T07:42:48.127Z,9.71
2023-03-03T07:44:08.764Z,9.15
2023-03-03T07:46:37.031Z,9.12
2023-03-03T07:47:39.916Z,9.07
2023-03-03T07:48:43.236Z,7.58
2023-03-03T07:49:47.384Z,8.20
2023-03-03T07:50:51.308Z,8.31
2023-03-03T07:51:56.388Z,8.17
2023-03-03T07:53:02.153Z,8.83
2023-03-03T07:54:36.905Z,9.12
2023-03-03T07:55:41.544Z,8.84
2023-03-03T07:56:43.831Z,9.42
2023-03-03T07:57:45.843Z,9.27
2023-03-03T07:58:47.987Z,8.27
2023-03-03T07:59:55.929Z,9.09
2023-03-03T08:01:24.702Z,9.90
2023-03-03T08:02:36.188Z,7.42
2023-03-03T08:04:44.847Z,8.48
2023-03-03T08:05:48.895Z,8.22
2023-03-03T08:06:57.730Z,7.56
2023-03-03T08:08:12.452Z,7.33
2023-03-03T08:09:22.311Z,7.94
2023-03-03T08:10:31.160Z,7.32
2023-03-03T08:11:33.814Z,7.81
2023-03-03T08:12:43.197Z,6.86
2023-03-03T08:13:45.797Z,7.38
2023-03-03T08:14:51.094Z,6.41
2023-03-03T08:16:02.869Z,6.46
2023-03-03T08:17:20.813Z,6.35
2023-03-03T08:18:27.484Z,5.77
2023-03-03T08:19:30.653Z,6.45
2023-03-03T08:20:42.511Z,6.43
2023-03-03T08:21:44.437Z,6.40
2023-03-03T08:22:46.362Z,7.08
2023-03-03T08:23:48.760Z,6.23
2023-03-03T08:24:50.770Z,6.06
2023-03-03T08:25:53.656Z,6.30
2023-03-03T08:26:55.908Z,7.84
2023-03-03T08:27:58.007Z,6.14
2023-03-03T08:29:01.495Z,6.60
2023-03-03T08:30:06.516Z,7.11
2023-03-03T08:31:20.308Z,6.33
2023-03-03T08:32:13.566Z,6.11
2023-03-03T08:33:18.005Z,6.11
2023-03-03T08:34:20.029Z,6.46
2023-03-03T08:35:22.141Z,6.20
2023-03-03T08:36:24.226Z,6.25
2023-03-03T08:37:26.275Z,6.85
2023-03-03T08:38:28.563Z,6.39
2023-03-03T08:39:30.611Z,5.58
2023-03-03T08:40:33.803Z,7.10
2023-03-03T08:41:36.005Z,5.96
2023-03-03T08:42:37.996Z,6.50
2023-03-03T08:43:39.980Z,6.20
2023-03-03T08:44:41.871Z,6.65
2023-03-03T08:45:47.058Z,7.53
2023-03-03T08:46:49.562Z,6.63
2023-03-03T08:47:51.775Z,6.05
2023-03-03T08:48:54.513Z,5.69
2023-03-03T08:49:56.388Z,5.93
2023-03-03T08:50:59.744Z,5.68
2023-03-03T08:52:01.658Z,5.74
2023-03-03T08:53:05.336Z,5.64
2023-03-03T08:54:07.812Z,6.31
2023-03-03T08:55:10.411Z,6.33
2023-03-03T08:56:12.594Z,6.98
2023-03-03T08:57:14.474Z,6.52
2023-03-03T08:58:18.928Z,5.85
2023-03-03T08:59:21.732Z,5.66
2023-03-03T09:00:24.890Z,6.66
2023-03-03T09:01:27.542Z,6.21
2023-03-03T09:02:29.584Z,5.83
2023-03-03T09:03:31.592Z,5.98
2023-03-03T09:04:34.054Z,5.50
2023-03-03T09:05:38.252Z,5.87
2023-03-03T09:06:40.635Z,5.85
2023-03-03T09:07:45.488Z,4.99
2023-03-03T09:08:48.662Z,5.50
2023-03-03T09:09:50.745Z,5.55
2023-03-03T09:10:52.925Z,5.71
2023-03-03T09:12:00.696Z,5.07
2023-03-03T09:13:09.533Z,6.49
2023-03-03T09:14:15.825Z,4.47
2023-03-03T09:15:29.380Z,4.58
2023-03-03T09:16:36.357Z,4.74
2023-03-03T09:17:38.673Z,4.98
2023-03-03T09:18:41.599Z,6.33
2023-03-03T09:19:43.722Z,5.92
2023-03-03T09:20:49.194Z,5.79
2023-03-03T09:21:52.858Z,6.51
2023-03-03T09:22:54.722Z,5.32
2023-03-03T09:23:59.062Z,6.31
2023-03-03T09:25:01.554Z,6.74
2023-03-03T09:27:28.522Z,6.31
2023-03-03T09:29:37.824Z,7.67
2023-03-03T09:30:43.719Z,7.24
2023-03-03T09:31:54.063Z,7.51
2023-03-03T09:32:57.607Z,8.27
2023-03-03T09:34:00.525Z,7.81
2023-03-03T09:35:27.479Z,7.09
2023-03-03T09:36:37.906Z,7.29
2023-03-03T09:37:40.923Z,7.56
2023-03-03T09:38:45.278Z,5.48
2023-03-03T09:39:50.378Z,5.10
2023-03-03T09:41:01.942Z,5.97
2023-03-03T09:42:22.805Z,5.10
2023-03-03T09:43:31.532Z,5.15
2023-03-03T09:44:43.370Z,5.19
2023-03-03T09:46:04.125Z,5.60
2023-03-03T09:47:21.054Z,5.75
2023-03-03T09:48:28.886Z,6.23
2023-03-03T09:49:36.805Z,6.12
2023-03-03T09:51:03.641Z,6.24
2023-03-03T09:52:09.500Z,7.01
2023-03-03T09:53:35.008Z,6.97
2023-03-03T09:55:09.410Z,7.04
2023-03-03T09:56:32.250Z,6.76
2023-03-03T09:58:09.959Z,6.65
2023-03-03T09:59:11.492Z,6.32
2023-03-03T10:01:56.026Z,7.78
2023-03-03T10:03:24.608Z,8.25
2023-03-03T10:04:51.404Z,7.48
2023-03-03T10:06:00.093Z,6.79
2023-03-03T10:07:11.804Z,7.25
2023-03-03T10:08:35.138Z,7.06
2023-03-03T10:09:40.879Z,7.39
2023-03-03T10:10:56.117Z,6.48
2023-03-03T10:12:22.966Z,7.21
2023-03-03T10:13:37.879Z,7.39
2023-03-03T10:15:17.469Z,7.36
2023-03-03T10:16:40.215Z,6.54
2023-03-03T10:17:51.226Z,7.10
2023-03-03T10:19:14.902Z,7.01
2023-03-03T10:20:50.707Z,8.21
2023-03-03T10:23:17.127Z,7.31
2023-03-03T10:24:31.224Z,6.47
2023-03-03T10:25:54.938Z,6.77
2023-03-03T10:27:13.100Z,6.67
2023-03-03T10:28:24.088Z,5.83
2023-03-03T10:29:38.982Z,4.80
2023-03-03T10:32:20.849Z,5.84
2023-03-03T10:33:29.654Z,4.26
2023-03-03T10:34:55.197Z,6.71
2023-03-03T10:36:30.784Z,4.97
2023-03-03T10:37:53.370Z,4.69
2023-03-03T10:39:22.151Z,4.87
2023-03-03T10:40:36.521Z,4.27
2023-03-03T10:41:45.889Z,4.36
2023-03-03T10:42:57.327Z,5.05
2023-03-03T10:47:02.352Z,5.11
2023-03-03T10:48:26.687Z,5.79
2023-03-03T10:49:44.762Z,4.33
2023-03-03T10:51:10.672Z,4.14
2023-03-03T10:52:31.259Z,5.64
2023-03-03T10:53:43.119Z,6.13
2023-03-03T10:55:13.209Z,5.64
2023-03-03T10:56:19.078Z,5.78
2023-03-03T10:57:42.929Z,5.62
2023-03-03T10:58:55.012Z,6.04
2023-03-03T11:00:25.174Z,6.46
2023-03-03T11:01:44.613Z,6.21
2023-03-03T11:03:02.177Z,6.19
2023-03-03T11:04:27.443Z,6.84
2023-03-03T11:05:36.740Z,6.25
2023-03-03T11:06:48.219Z,7.18
2023-03-03T11:08:18.421Z,6.31
2023-03-03T11:09:45.092Z,6.89
2023-03-03T11:10:53.779Z,6.49
2023-03-03T11:12:17.597Z,5.75
2023-03-03T11:13:32.606Z,6.32
2023-03-03T11:14:41.296Z,7.36
2023-03-03T11:15:53.200Z,6.85
2023-03-03T11:17:13.604Z,6.69
2023-03-03T11:18:31.372Z,6.00
2023-03-03T11:20:04.138Z,6.45
2023-03-03T11:21:19.471Z,5.79
2023-03-03T11:22:52.338Z,6.03
2023-03-03T11:24:13.295Z,6.02
2023-03-03T11:25:28.272Z,6.09
2023-03-03T11:26:34.279Z,6.01
2023-03-03T11:27:40.960Z,5.82
2023-03-03T11:28:53.443Z,5.77
2023-03-03T11:30:08.167Z,5.58
2023-03-03T11:31:19.537Z,6.33
2023-03-03T11:32:41.215Z,6.42
2023-03-03T11:33:59.439Z,6.10
2023-03-03T11:35:05.291Z,6.42
2023-03-03T11:36:14.310Z,8.48
2023-03-03T11:37:35.266Z,6.84
2023-03-03T11:38:56.410Z,8.03
2023-03-03T11:40:02.181Z,5.98
2023-03-03T11:41:24.869Z,4.69
2023-03-03T11:42:36.674Z,4.83
2023-03-03T11:44:03.807Z,4.18
2023-03-03T11:45:21.815Z,4.25
2023-03-03T11:46:27.698Z,3.64
2023-03-03T11:47:36.211Z,3.73
2023-03-03T11:48:57.006Z,4.74
2023-03-03T11:50:11.575Z,4.72
2023-03-03T11:51:41.935Z,5.60
2023-03-03T11:52:54.929Z,4.96
2023-03-03T11:54:00.658Z,5.07
2023-03-03T11:55:18.789Z,6.14
2023-03-03T11:56:42.189Z,6.03
2023-03-03T11:59:21.608Z,5.03
2023-03-03T12:00:30.390Z,5.64
2023-03-03T12:01:50.916Z,6.73
2023-03-03T12:03:08.908Z,5.62
2023-03-03T12:04:17.372Z,4.01
2023-03-03T12:05:35.436Z,3.73
2023-03-03T12:07:19.298Z,4.44
2023-03-03T12:08:47.002Z,4.87
2023-03-03T12:10:26.545Z,4.49
2023-03-03T12:11:53.964Z,5.23
2023-03-03T12:13:04.732Z,5.34
2023-03-03T12:15:36.607Z,4.56
2023-03-03T12:16:51.972Z,4.12
2023-03-03T12:18:12.918Z,4.55
2023-03-03T12:19:18.706Z,3.58
2023-03-03T12:20:53.569Z,4.07
2023-03-03T12:22:18.858Z,5.17
2023-03-03T12:23:43.019Z,5.12
2023-03-03T12:25:05.765Z,9.82
2023-03-03T12:26:33.598Z,3.43
2023-03-03T12:27:51.664Z,4.89
2023-03-03T12:29:07.056Z,4.66
2023-03-03T12:30:19.917Z,3.54
2023-03-03T12:33:13.185Z,3.00
2023-03-03T12:34:25.139Z,3.29
2023-03-03T12:35:36.997Z,3.16
2023-03-03T12:36:58.542Z,3.39
2023-03-03T12:38:07.312Z,2.96
2023-03-03T12:41:14.272Z,3.32
2023-03-03T12:42:50.818Z,2.86
2023-03-03T12:43:59.946Z,2.98
2023-03-03T12:45:25.343Z,3.92
2023-03-03T12:46:55.561Z,3.09
2023-03-03T12:48:01.995Z,3.02
2023-03-03T12:49:04.747Z,3.43
2023-03-03T12:50:14.342Z,3.12
2023-03-03T12:51:22.576Z,3.40
2023-03-03T12:52:48.302Z,3.52
2023-03-03T12:54:00.459Z,4.53
2023-03-03T12:55:15.429Z,3.96
2023-03-03T12:57:46.945Z,3.39
2023-03-03T12:58:58.333Z,4.28
2023-03-03T13:01:11.235Z,4.03
2023-03-03T13:02:35.339Z,3.82
2023-03-03T13:03:55.313Z,4.82
2023-03-03T13:04:55.470Z,4.96
2023-03-03T13:06:16.125Z,4.11
2023-03-03T13:07:25.271Z,4.29
2023-03-03T13:08:33.769Z,4.70
2023-03-03T13:09:47.672Z,4.68
2023-03-03T13:10:56.696Z,4.41
2023-03-03T13:12:22.289Z,4.09
2023-03-03T13:13:33.979Z,4.22
2023-03-03T13:14:39.775Z,5.21
2023-03-03T13:16:06.554Z,6.64
2023-03-03T13:17:18.667Z,4.97
2023-03-03T13:18:24.435Z,4.47
2023-03-03T13:19:39.496Z,5.68
2023-03-03T13:21:03.814Z,5.33
2023-03-03T13:22:09.516Z,4.72
2023-03-03T13:23:15.190Z,4.59
2023-03-03T13:24:27.107Z,4.51
2023-03-03T13:25:52.502Z,3.83
2023-03-03T13:27:07.250Z,4.01
2023-03-03T13:28:34.660Z,4.77
2023-03-03T13:31:04.444Z,3.93
2023-03-03T13:32:16.053Z,3.26
2023-03-03T13:33:31.066Z,3.81
2023-03-03T13:35:00.967Z,3.42
2023-03-03T13:36:12.745Z,3.51
2023-03-03T13:37:27.715Z,3.64
2023-03-03T13:38:33.223Z,3.18
2023-03-03T13:39:41.682Z,3.15
2023-03-03T13:40:47.747Z,3.71
2023-03-03T13:42:13.381Z,3.72
2023-03-03T13:43:25.294Z,3.30
2023-03-03T13:44:45.534Z,3.98
2023-03-03T13:46:09.587Z,3.64
2023-03-03T13:47:30.416Z,3.68
2023-03-03T13:48:45.602Z,3.64
2023-03-03T13:50:15.608Z,3.88
2023-03-03T13:51:39.394Z,5.49
2023-03-03T13:52:51.152Z,5.10
2023-03-03T13:54:03.109Z,5.82
2023-03-03T13:55:11.351Z,4.39
2023-03-03T13:56:37.040Z,4.83
2023-03-03T13:58:00.149Z,4.09
2023-03-03T13:59:20.700Z,4.07
2023-03-03T14:00:37.566Z,6.34
2023-03-03T14:01:43.363Z,6.15
2023-03-03T14:03:06.957Z,6.38
2023-03-03T14:04:28.070Z,3.97
2023-03-03T14:05:40.129Z,5.61
2023-03-03T14:06:45.948Z,4.66
2023-03-03T14:08:00.897Z,4.78
2023-03-03T14:09:12.260Z,5.04
2023-03-03T14:10:21.127Z,8.36
2023-03-03T14:11:47.855Z,9.91
2023-03-03T14:13:14.978Z,12.94
2023-03-03T14:14:38.865Z,7.02
2023-03-03T14:15:57.040Z,5.36
2023-03-03T14:17:18.110Z,6.78
2023-03-03T14:18:29.474Z,8.69
2023-03-03T14:19:38.125Z,6.11
2023-03-03T14:20:52.203Z,6.74
2023-03-03T14:22:15.977Z,7.45
2023-03-03T14:23:21.861Z,4.03
2023-03-03T14:24:24.043Z,6.95
2023-03-03T14:25:27.035Z,6.81
2023-03-03T14:26:29.633Z,6.78
2023-03-03T14:27:41.208Z,6.85
2023-03-03T14:28:47.932Z,7.01
2023-03-03T14:29:50.198Z,5.99
2023-03-03T14:30:57.799Z,4.75
2023-03-03T14:32:02.771Z,5.36
2023-03-03T14:33:11.741Z,5.72
2023-03-03T14:34:38.357Z,4.76
2023-03-03T14:35:43.537Z,4.58
2023-03-03T14:36:45.725Z,4.33
2023-03-03T14:37:50.297Z,3.87
2023-03-03T14:38:53.783Z,3.69
2023-03-03T14:40:31.546Z,4.08
2023-03-03T14:41:40.633Z,4.24
2023-03-03T14:42:52.527Z,4.39
2023-03-03T14:44:17.791Z,5.46
2023-03-03T14:45:34.742Z,5.19
2023-03-03T14:46:40.355Z,5.58
2023-03-03T14:47:45.900Z,6.23
2023-03-03T14:48:53.222Z,5.91
2023-03-03T14:49:57.783Z,6.46
2023-03-03T14:51:20.341Z,6.02
2023-03-03T14:52:25.726Z,5.33
2023-03-03T14:53:39.757Z,6.62
2023-03-03T14:54:44.847Z,6.77
2023-03-03T14:57:12.700Z,6.77
2023-03-03T14:58:33.787Z,6.89
2023-03-03T14:59:36.119Z,6.96
2023-03-03T15:00:38.424Z,7.42
2023-03-03T15:01:43.670Z,8.39
2023-03-03T15:03:01.003Z,8.87
2023-03-03T15:04:19.459Z,7.87
2023-03-03T15:05:31.788Z,8.77
2023-03-03T15:06:43.372Z,8.57
2023-03-03T15:07:48.893Z,8.51
2023-03-03T15:08:51.565Z,8.53
2023-03-03T15:09:53.650Z,8.36
2023-03-03T15:10:59.737Z,8.49
2023-03-03T15:12:04.624Z,8.88
2023-03-03T15:13:22.586Z,9.22
2023-03-03T15:14:31.360Z,8.50
2023-03-03T15:15:33.420Z,8.99
2023-03-03T15:16:37.980Z,8.41